sensor_id;sensor_type;location;lat;lon;timestamp;temperature;humidity
316;DHT22;14128;48.686;9.738;2022-12-22T00:02:28;7.30;1.40
316;DHT22;14128;48.686;9.738;2022-12-22T00:05:14;7.40;1.40
316;DHT22;14128;48.686;9.738;2022-12-22T00:07:59;7.40;1.40
316;DHT22;14128;48.686;9.738;2022-12-22T00:10:43;7.50;1.40
316;DHT22;14128;48.686;9.738;2022-12-22T00:13:29;7.50;1.40
316;DHT22;14128;48.686;9.738;2022-12-22T00:16:13;7.50;1.40
316;DHT22;14128;48.686;9.738;2022-12-22T00:18:57;7.60;1.40
316;DHT22;14128;48.686;9.738;2022-12-22T00:21:42;7.60;1.40
316;DHT22;14128;48.686;9.738;2022-12-22T00:24:26;7.60;1.40
316;DHT22;14128;48.686;9.738;2022-12-22T00:27:13;7.60;1.40
316;DHT22;14128;48.686;9.738;2022-12-22T00:30:00;7.60;1.40
316;DHT22;14128;48.686;9.738;2022-12-22T00:32:45;7.70;1.40
316;DHT22;14128;48.686;9.738;2022-12-22T00:35:29;7.80;1.40
316;DHT22;14128;48.686;9.738;2022-12-22T00:38:16;7.80;1.40
316;DHT22;14128;48.686;9.738;2022-12-22T00:41:01;7.90;1.40
316;DHT22;14128;48.686;9.738;2022-12-22T00:43:45;7.90;1.40
316;DHT22;14128;48.686;9.738;2022-12-22T00:46:32;7.90;1.40
316;DHT22;14128;48.686;9.738;2022-12-22T00:49:17;7.90;1.40
316;DHT22;14128;48.686;9.738;2022-12-22T00:52:02;7.90;1.40
316;DHT22;14128;48.686;9.738;2022-12-22T00:54:46;7.90;1.40
316;DHT22;14128;48.686;9.738;2022-12-22T00:57:31;7.90;1.40
316;DHT22;14128;48.686;9.738;2022-12-22T01:00:17;7.90;1.40
316;DHT22;14128;48.686;9.738;2022-12-22T01:03:04;7.90;1.40
316;DHT22;14128;48.686;9.738;2022-12-22T01:05:48;7.90;1.40
316;DHT22;14128;48.686;9.738;2022-12-22T01:08:33;7.90;1.40
316;DHT22;14128;48.686;9.738;2022-12-22T01:11:19;7.90;1.40
316;DHT22;14128;48.686;9.738;2022-12-22T01:14:07;8.00;1.40
316;DHT22;14128;48.686;9.738;2022-12-22T01:16:51;8.00;1.40
316;DHT22;14128;48.686;9.738;2022-12-22T01:19:37;8.00;1.40
316;DHT22;14128;48.686;9.738;2022-12-22T01:22:21;7.90;1.40
316;DHT22;14128;48.686;9.738;2022-12-22T01:25:11;8.00;1.40
316;DHT22;14128;48.686;9.738;2022-12-22T01:27:56;8.10;1.40
316;DHT22;14128;48.686;9.738;2022-12-22T01:30:40;8.30;1.40
316;DHT22;14128;48.686;9.738;2022-12-22T01:33:25;8.30;1.40
316;DHT22;14128;48.686;9.738;2022-12-22T01:36:10;8.20;1.40
316;DHT22;14128;48.686;9.738;2022-12-22T01:38:55;8.20;1.40
316;DHT22;14128;48.686;9.738;2022-12-22T01:41:40;8.20;1.40
316;DHT22;14128;48.686;9.738;2022-12-22T01:44:24;8.10;1.40
316;DHT22;14128;48.686;9.738;2022-12-22T01:47:31;8.10;1.40
316;DHT22;14128;48.686;9.738;2022-12-22T01:50:18;8.00;1.40
316;DHT22;14128;48.686;9.738;2022-12-22T01:53:07;8.00;1.40
316;DHT22;14128;48.686;9.738;2022-12-22T01:55:53;8.00;1.40
316;DHT22;14128;48.686;9.738;2022-12-22T01:58:41;8.00;1.40
316;DHT22;14128;48.686;9.738;2022-12-22T02:01:28;8.00;1.40
316;DHT22;14128;48.686;9.738;2022-12-22T02:04:12;8.00;1.40
316;DHT22;14128;48.686;9.738;2022-12-22T02:07:05;8.10;1.40
316;DHT22;14128;48.686;9.738;2022-12-22T02:10:01;8.10;1.40
316;DHT22;14128;48.686;9.738;2022-12-22T02:12:55;8.10;1.40
316;DHT22;14128;48.686;9.738;2022-12-22T02:15:49;8.10;1.40
316;DHT22;14128;48.686;9.738;2022-12-22T02:18:40;8.00;1.40
316;DHT22;14128;48.686;9.738;2022-12-22T02:21:27;8.00;1.40
316;DHT22;14128;48.686;9.738;2022-12-22T02:24:22;8.00;1.40
316;DHT22;14128;48.686;9.738;2022-12-22T02:27:12;8.00;1.40
316;DHT22;14128;48.686;9.738;2022-12-22T02:30:01;7.90;1.40
316;DHT22;14128;48.686;9.738;2022-12-22T02:32:46;8.00;1.40
316;DHT22;14128;48.686;9.738;2022-12-22T02:35:41;8.00;1.40
316;DHT22;14128;48.686;9.738;2022-12-22T02:38:37;8.00;1.40
316;DHT22;14128;48.686;9.738;2022-12-22T02:41:29;8.00;1.40
316;DHT22;14128;48.686;9.738;2022-12-22T02:44:25;8.00;1.40
316;DHT22;14128;48.686;9.738;2022-12-22T02:47:17;8.10;1.40
316;DHT22;14128;48.686;9.738;2022-12-22T02:50:08;8.20;1.40
316;DHT22;14128;48.686;9.738;2022-12-22T02:52:57;8.20;1.40
316;DHT22;14128;48.686;9.738;2022-12-22T02:55:43;8.20;1.40
316;DHT22;14128;48.686;9.738;2022-12-22T02:58:29;8.30;1.40
316;DHT22;14128;48.686;9.738;2022-12-22T03:01:16;8.20;1.40
316;DHT22;14128;48.686;9.738;2022-12-22T03:04:00;8.30;1.40
316;DHT22;14128;48.686;9.738;2022-12-22T03:06:44;8.30;1.40
316;DHT22;14128;48.686;9.738;2022-12-22T03:09:28;8.30;1.40
316;DHT22;14128;48.686;9.738;2022-12-22T03:12:12;8.40;1.40
316;DHT22;14128;48.686;9.738;2022-12-22T03:14:56;8.40;1.40
316;DHT22;14128;48.686;9.738;2022-12-22T03:17:42;8.40;1.40
316;DHT22;14128;48.686;9.738;2022-12-22T03:20:26;8.40;1.40
316;DHT22;14128;48.686;9.738;2022-12-22T03:23:10;8.20;1.40
316;DHT22;14128;48.686;9.738;2022-12-22T03:25:54;8.00;1.40
316;DHT22;14128;48.686;9.738;2022-12-22T03:28:23;8.00;1.40
316;DHT22;14128;48.686;9.738;2022-12-22T03:30:55;8.20;1.40
316;DHT22;14128;48.686;9.738;2022-12-22T03:33:23;8.40;1.40
316;DHT22;14128;48.686;9.738;2022-12-22T03:35:50;8.50;1.40
316;DHT22;14128;48.686;9.738;2022-12-22T03:38:17;8.60;1.40
316;DHT22;14128;48.686;9.738;2022-12-22T03:40:44;8.70;1.40
316;DHT22;14128;48.686;9.738;2022-12-22T03:43:11;8.60;1.40
316;DHT22;14128;48.686;9.738;2022-12-22T03:45:56;8.80;1.40
316;DHT22;14128;48.686;9.738;2022-12-22T03:48:42;9.00;1.40
316;DHT22;14128;48.686;9.738;2022-12-22T03:51:09;9.00;1.40
316;DHT22;14128;48.686;9.738;2022-12-22T03:53:36;9.00;1.40
316;DHT22;14128;48.686;9.738;2022-12-22T03:56:03;8.80;1.40
316;DHT22;14128;48.686;9.738;2022-12-22T03:58:30;8.80;1.40
316;DHT22;14128;48.686;9.738;2022-12-22T04:01:04;8.70;1.40
316;DHT22;14128;48.686;9.738;2022-12-22T04:03:32;8.60;1.40
316;DHT22;14128;48.686;9.738;2022-12-22T04:06:00;8.50;1.40
316;DHT22;14128;48.686;9.738;2022-12-22T04:08:27;8.50;1.40
316;DHT22;14128;48.686;9.738;2022-12-22T04:10:53;8.40;1.40
316;DHT22;14128;48.686;9.738;2022-12-22T04:13:38;8.50;1.40
316;DHT22;14128;48.686;9.738;2022-12-22T04:16:05;8.70;1.40
316;DHT22;14128;48.686;9.738;2022-12-22T04:18:32;8.80;1.40
316;DHT22;14128;48.686;9.738;2022-12-22T04:21:00;9.00;1.40
316;DHT22;14128;48.686;9.738;2022-12-22T04:23:27;9.10;1.40
316;DHT22;14128;48.686;9.738;2022-12-22T04:25:53;9.20;1.40
316;DHT22;14128;48.686;9.738;2022-12-22T04:28:20;9.20;1.40
316;DHT22;14128;48.686;9.738;2022-12-22T04:30:48;9.30;1.40
316;DHT22;14128;48.686;9.738;2022-12-22T04:33:15;9.30;1.40
316;DHT22;14128;48.686;9.738;2022-12-22T04:35:42;9.40;1.40
316;DHT22;14128;48.686;9.738;2022-12-22T04:38:11;9.40;1.40
316;DHT22;14128;48.686;9.738;2022-12-22T04:40:37;9.50;1.40
316;DHT22;14128;48.686;9.738;2022-12-22T04:43:04;9.50;1.40
316;DHT22;14128;48.686;9.738;2022-12-22T04:45:31;9.50;1.40
316;DHT22;14128;48.686;9.738;2022-12-22T04:47:58;9.60;1.40
316;DHT22;14128;48.686;9.738;2022-12-22T04:50:25;9.60;1.40
316;DHT22;14128;48.686;9.738;2022-12-22T04:52:52;9.60;1.40
316;DHT22;14128;48.686;9.738;2022-12-22T04:55:20;9.70;1.40
316;DHT22;14128;48.686;9.738;2022-12-22T04:57:47;9.70;1.40
316;DHT22;14128;48.686;9.738;2022-12-22T05:00:14;9.80;1.40
316;DHT22;14128;48.686;9.738;2022-12-22T05:02:41;9.80;1.40
316;DHT22;14128;48.686;9.738;2022-12-22T05:05:08;9.90;1.40
316;DHT22;14128;48.686;9.738;2022-12-22T05:07:35;9.90;1.40
316;DHT22;14128;48.686;9.738;2022-12-22T05:10:03;10.00;1.40
316;DHT22;14128;48.686;9.738;2022-12-22T05:12:31;10.00;1.40
316;DHT22;14128;48.686;9.738;2022-12-22T05:15:15;10.10;1.40
316;DHT22;14128;48.686;9.738;2022-12-22T05:17:42;10.10;1.40
316;DHT22;14128;48.686;9.738;2022-12-22T05:20:09;10.10;1.40
316;DHT22;14128;48.686;9.738;2022-12-22T05:22:36;9.90;1.40
316;DHT22;14128;48.686;9.738;2022-12-22T05:25:04;9.90;1.40
316;DHT22;14128;48.686;9.738;2022-12-22T05:27:32;9.90;1.40
316;DHT22;14128;48.686;9.738;2022-12-22T05:29:59;10.10;1.40
316;DHT22;14128;48.686;9.738;2022-12-22T05:32:25;10.00;1.40
316;DHT22;14128;48.686;9.738;2022-12-22T05:34:52;10.10;1.40
316;DHT22;14128;48.686;9.738;2022-12-22T05:37:19;10.20;1.40
316;DHT22;14128;48.686;9.738;2022-12-22T05:39:46;10.30;1.40
316;DHT22;14128;48.686;9.738;2022-12-22T05:42:13;10.30;1.40
316;DHT22;14128;48.686;9.738;2022-12-22T05:45:02;10.40;1.40
316;DHT22;14128;48.686;9.738;2022-12-22T05:47:29;10.40;1.40
316;DHT22;14128;48.686;9.738;2022-12-22T05:49:55;10.50;1.40
316;DHT22;14128;48.686;9.738;2022-12-22T05:52:22;10.50;1.40
316;DHT22;14128;48.686;9.738;2022-12-22T05:54:49;10.60;1.40
316;DHT22;14128;48.686;9.738;2022-12-22T05:57:16;10.80;1.40
316;DHT22;14128;48.686;9.738;2022-12-22T05:59:43;10.80;1.40
316;DHT22;14128;48.686;9.738;2022-12-22T06:02:11;10.90;1.40
316;DHT22;14128;48.686;9.738;2022-12-22T06:04:37;10.90;1.40
316;DHT22;14128;48.686;9.738;2022-12-22T06:07:04;10.90;1.40
316;DHT22;14128;48.686;9.738;2022-12-22T06:09:31;10.80;1.40
316;DHT22;14128;48.686;9.738;2022-12-22T06:11:58;10.90;1.40
316;DHT22;14128;48.686;9.738;2022-12-22T06:14:25;10.80;1.40
316;DHT22;14128;48.686;9.738;2022-12-22T06:16:51;10.70;1.40
316;DHT22;14128;48.686;9.738;2022-12-22T06:19:20;10.50;1.40
316;DHT22;14128;48.686;9.738;2022-12-22T06:21:46;10.30;1.40
316;DHT22;14128;48.686;9.738;2022-12-22T06:24:13;10.20;1.40
316;DHT22;14128;48.686;9.738;2022-12-22T06:26:40;10.30;1.40
316;DHT22;14128;48.686;9.738;2022-12-22T06:29:07;10.10;1.40
316;DHT22;14128;48.686;9.738;2022-12-22T06:31:33;10.10;1.40
316;DHT22;14128;48.686;9.738;2022-12-22T06:34:00;10.10;1.40
316;DHT22;14128;48.686;9.738;2022-12-22T06:36:28;9.90;1.40
316;DHT22;14128;48.686;9.738;2022-12-22T06:38:55;10.00;1.40
316;DHT22;14128;48.686;9.738;2022-12-22T06:41:22;9.80;1.40
316;DHT22;14128;48.686;9.738;2022-12-22T06:44:03;10.10;1.40
316;DHT22;14128;48.686;9.738;2022-12-22T06:46:29;10.10;1.40
316;DHT22;14128;48.686;9.738;2022-12-22T06:48:56;10.10;1.40
316;DHT22;14128;48.686;9.738;2022-12-22T06:51:23;10.20;1.40
316;DHT22;14128;48.686;9.738;2022-12-22T06:53:51;10.40;1.40
316;DHT22;14128;48.686;9.738;2022-12-22T06:56:18;10.40;1.40
316;DHT22;14128;48.686;9.738;2022-12-22T06:58:45;10.40;1.40
316;DHT22;14128;48.686;9.738;2022-12-22T07:01:11;10.60;1.40
316;DHT22;14128;48.686;9.738;2022-12-22T07:03:38;10.80;1.40
316;DHT22;14128;48.686;9.738;2022-12-22T07:06:06;10.80;1.40
316;DHT22;14128;48.686;9.738;2022-12-22T07:08:32;10.80;1.40
316;DHT22;14128;48.686;9.738;2022-12-22T07:11:01;10.80;1.40
316;DHT22;14128;48.686;9.738;2022-12-22T07:13:29;10.50;1.40
316;DHT22;14128;48.686;9.738;2022-12-22T07:15:57;10.40;1.40
316;DHT22;14128;48.686;9.738;2022-12-22T07:18:24;10.30;1.40
316;DHT22;14128;48.686;9.738;2022-12-22T07:20:51;10.30;1.40
316;DHT22;14128;48.686;9.738;2022-12-22T07:23:18;10.40;1.40
316;DHT22;14128;48.686;9.738;2022-12-22T07:25:45;10.50;1.40
316;DHT22;14128;48.686;9.738;2022-12-22T07:28:13;10.60;1.40
316;DHT22;14128;48.686;9.738;2022-12-22T07:30:40;10.60;1.40
316;DHT22;14128;48.686;9.738;2022-12-22T07:33:07;10.50;1.40
316;DHT22;14128;48.686;9.738;2022-12-22T07:35:33;10.40;1.40
316;DHT22;14128;48.686;9.738;2022-12-22T07:38:00;10.00;1.40
316;DHT22;14128;48.686;9.738;2022-12-22T07:40:27;9.90;1.40
316;DHT22;14128;48.686;9.738;2022-12-22T07:42:55;9.90;1.40
316;DHT22;14128;48.686;9.738;2022-12-22T07:45:23;9.90;1.40
316;DHT22;14128;48.686;9.738;2022-12-22T07:47:50;10.00;1.40
316;DHT22;14128;48.686;9.738;2022-12-22T07:50:18;10.20;1.40
316;DHT22;14128;48.686;9.738;2022-12-22T07:52:52;10.40;1.40
316;DHT22;14128;48.686;9.738;2022-12-22T07:55:20;10.50;1.40
316;DHT22;14128;48.686;9.738;2022-12-22T07:57:46;10.60;1.40
316;DHT22;14128;48.686;9.738;2022-12-22T08:00:14;10.60;1.40
316;DHT22;14128;48.686;9.738;2022-12-22T08:02:47;10.80;1.40
316;DHT22;14128;48.686;9.738;2022-12-22T08:05:14;10.80;1.40
316;DHT22;14128;48.686;9.738;2022-12-22T08:07:41;10.90;1.40
316;DHT22;14128;48.686;9.738;2022-12-22T08:10:09;10.90;1.40
316;DHT22;14128;48.686;9.738;2022-12-22T08:12:36;11.00;1.40
316;DHT22;14128;48.686;9.738;2022-12-22T08:15:05;11.10;1.40
316;DHT22;14128;48.686;9.738;2022-12-22T08:17:32;11.20;1.40
316;DHT22;14128;48.686;9.738;2022-12-22T08:20:00;11.20;1.40
316;DHT22;14128;48.686;9.738;2022-12-22T08:22:27;11.20;1.40
316;DHT22;14128;48.686;9.738;2022-12-22T08:24:55;11.20;1.40
316;DHT22;14128;48.686;9.738;2022-12-22T08:27:25;11.10;1.40
316;DHT22;14128;48.686;9.738;2022-12-22T08:29:56;10.90;1.40
316;DHT22;14128;48.686;9.738;2022-12-22T08:32:23;10.80;1.40
316;DHT22;14128;48.686;9.738;2022-12-22T08:34:51;11.00;1.40
316;DHT22;14128;48.686;9.738;2022-12-22T08:37:21;11.10;1.40
316;DHT22;14128;48.686;9.738;2022-12-22T08:39:52;11.10;1.40
316;DHT22;14128;48.686;9.738;2022-12-22T08:42:21;11.10;1.40
316;DHT22;14128;48.686;9.738;2022-12-22T08:44:50;11.10;1.40
316;DHT22;14128;48.686;9.738;2022-12-22T08:47:18;11.10;1.40
316;DHT22;14128;48.686;9.738;2022-12-22T08:49:44;11.10;1.40
316;DHT22;14128;48.686;9.738;2022-12-22T08:52:11;11.00;1.40
316;DHT22;14128;48.686;9.738;2022-12-22T08:54:40;10.90;1.40
316;DHT22;14128;48.686;9.738;2022-12-22T08:57:06;11.10;1.40
316;DHT22;14128;48.686;9.738;2022-12-22T08:59:33;11.30;1.40
316;DHT22;14128;48.686;9.738;2022-12-22T09:02:00;11.40;1.40
316;DHT22;14128;48.686;9.738;2022-12-22T09:04:30;11.30;1.40
316;DHT22;14128;48.686;9.738;2022-12-22T09:06:57;11.40;1.40
316;DHT22;14128;48.686;9.738;2022-12-22T09:09:24;11.60;1.40
316;DHT22;14128;48.686;9.738;2022-12-22T09:11:53;11.80;1.40
316;DHT22;14128;48.686;9.738;2022-12-22T09:14:19;11.80;1.40
316;DHT22;14128;48.686;9.738;2022-12-22T09:16:46;11.90;1.40
316;DHT22;14128;48.686;9.738;2022-12-22T09:19:14;12.00;1.40
316;DHT22;14128;48.686;9.738;2022-12-22T09:21:41;12.00;1.40
316;DHT22;14128;48.686;9.738;2022-12-22T09:24:09;11.90;1.40
316;DHT22;14128;48.686;9.738;2022-12-22T09:26:36;11.80;1.40
316;DHT22;14128;48.686;9.738;2022-12-22T09:29:05;11.70;1.40
316;DHT22;14128;48.686;9.738;2022-12-22T09:31:32;11.70;1.40
316;DHT22;14128;48.686;9.738;2022-12-22T09:33:59;11.80;1.40
316;DHT22;14128;48.686;9.738;2022-12-22T09:36:27;11.90;1.40
316;DHT22;14128;48.686;9.738;2022-12-22T09:38:54;12.10;1.40
316;DHT22;14128;48.686;9.738;2022-12-22T09:41:27;12.50;1.40
316;DHT22;14128;48.686;9.738;2022-12-22T09:43:56;12.80;1.40
316;DHT22;14128;48.686;9.738;2022-12-22T09:46:26;12.90;1.40
316;DHT22;14128;48.686;9.738;2022-12-22T09:48:54;12.60;1.40
316;DHT22;14128;48.686;9.738;2022-12-22T09:51:21;12.30;1.40
316;DHT22;14128;48.686;9.738;2022-12-22T09:53:52;10.70;1.40
316;DHT22;14128;48.686;9.738;2022-12-22T09:56:20;10.00;1.40
316;DHT22;14128;48.686;9.738;2022-12-22T09:58:48;9.40;1.40
316;DHT22;14128;48.686;9.738;2022-12-22T10:01:31;9.20;1.40
316;DHT22;14128;48.686;9.738;2022-12-22T10:04:04;9.00;1.40
316;DHT22;14128;48.686;9.738;2022-12-22T10:06:36;8.90;1.40
316;DHT22;14128;48.686;9.738;2022-12-22T10:09:14;8.90;1.40
316;DHT22;14128;48.686;9.738;2022-12-22T10:11:49;8.90;1.40
316;DHT22;14128;48.686;9.738;2022-12-22T10:14:16;8.90;1.40
316;DHT22;14128;48.686;9.738;2022-12-22T10:16:45;9.00;1.40
316;DHT22;14128;48.686;9.738;2022-12-22T10:19:13;8.90;1.40
316;DHT22;14128;48.686;9.738;2022-12-22T10:21:40;8.90;1.40
316;DHT22;14128;48.686;9.738;2022-12-22T10:24:15;8.90;1.40
316;DHT22;14128;48.686;9.738;2022-12-22T10:26:42;9.00;1.40
316;DHT22;14128;48.686;9.738;2022-12-22T10:29:11;8.90;1.40
316;DHT22;14128;48.686;9.738;2022-12-22T10:31:57;8.90;1.40
316;DHT22;14128;48.686;9.738;2022-12-22T10:34:24;9.00;1.40
316;DHT22;14128;48.686;9.738;2022-12-22T10:36:54;9.00;1.40
316;DHT22;14128;48.686;9.738;2022-12-22T10:39:24;9.00;1.40
316;DHT22;14128;48.686;9.738;2022-12-22T10:41:54;9.00;1.40
316;DHT22;14128;48.686;9.738;2022-12-22T10:44:23;9.10;1.40
316;DHT22;14128;48.686;9.738;2022-12-22T10:46:53;9.10;1.40
316;DHT22;14128;48.686;9.738;2022-12-22T10:49:22;9.10;1.40
316;DHT22;14128;48.686;9.738;2022-12-22T10:51:52;9.20;1.40
316;DHT22;14128;48.686;9.738;2022-12-22T10:54:28;9.20;1.40
316;DHT22;14128;48.686;9.738;2022-12-22T10:57:01;9.30;1.40
316;DHT22;14128;48.686;9.738;2022-12-22T10:59:27;9.30;1.40
316;DHT22;14128;48.686;9.738;2022-12-22T11:02:21;9.40;1.40
316;DHT22;14128;48.686;9.738;2022-12-22T11:04:51;9.50;1.40
316;DHT22;14128;48.686;9.738;2022-12-22T11:07:18;9.50;1.40
316;DHT22;14128;48.686;9.738;2022-12-22T11:09:45;9.50;1.40
316;DHT22;14128;48.686;9.738;2022-12-22T11:12:18;9.60;1.40
316;DHT22;14128;48.686;9.738;2022-12-22T11:14:53;9.50;1.40
316;DHT22;14128;48.686;9.738;2022-12-22T11:17:28;9.50;1.40
316;DHT22;14128;48.686;9.738;2022-12-22T11:20:15;9.60;1.40
316;DHT22;14128;48.686;9.738;2022-12-22T11:22:48;9.60;1.40
316;DHT22;14128;48.686;9.738;2022-12-22T11:25:25;9.50;1.40
316;DHT22;14128;48.686;9.738;2022-12-22T11:28:07;9.40;1.40
316;DHT22;14128;48.686;9.738;2022-12-22T11:30:47;9.30;1.40
316;DHT22;14128;48.686;9.738;2022-12-22T11:33:27;9.30;1.40
316;DHT22;14128;48.686;9.738;2022-12-22T11:35:57;9.30;1.40
316;DHT22;14128;48.686;9.738;2022-12-22T11:38:36;9.30;1.40
316;DHT22;14128;48.686;9.738;2022-12-22T11:41:21;9.40;1.40
316;DHT22;14128;48.686;9.738;2022-12-22T11:44:00;9.50;1.40
316;DHT22;14128;48.686;9.738;2022-12-22T11:46:35;9.50;1.40
316;DHT22;14128;48.686;9.738;2022-12-22T11:49:25;9.60;1.40
316;DHT22;14128;48.686;9.738;2022-12-22T11:52:10;9.60;1.40
316;DHT22;14128;48.686;9.738;2022-12-22T11:54:45;9.70;1.40
316;DHT22;14128;48.686;9.738;2022-12-22T11:57:21;9.80;1.40
316;DHT22;14128;48.686;9.738;2022-12-22T12:00:00;9.90;1.40
316;DHT22;14128;48.686;9.738;2022-12-22T12:02:59;10.10;1.40
316;DHT22;14128;48.686;9.738;2022-12-22T12:08:43;10.40;1.40
316;DHT22;14128;48.686;9.738;2022-12-22T12:11:21;10.50;1.40
316;DHT22;14128;48.686;9.738;2022-12-22T12:13:59;10.40;1.40
316;DHT22;14128;48.686;9.738;2022-12-22T12:16:33;10.50;1.40
316;DHT22;14128;48.686;9.738;2022-12-22T12:19:25;10.60;1.40
316;DHT22;14128;48.686;9.738;2022-12-22T12:21:55;10.70;1.40
316;DHT22;14128;48.686;9.738;2022-12-22T12:24:46;10.80;1.40
316;DHT22;14128;48.686;9.738;2022-12-22T12:27:32;11.00;1.40
316;DHT22;14128;48.686;9.738;2022-12-22T12:30:04;11.20;1.40
316;DHT22;14128;48.686;9.738;2022-12-22T12:32:36;11.40;1.40
316;DHT22;14128;48.686;9.738;2022-12-22T12:35:09;11.60;1.40
316;DHT22;14128;48.686;9.738;2022-12-22T12:37:43;11.80;1.40
316;DHT22;14128;48.686;9.738;2022-12-22T12:40:26;12.00;1.40
316;DHT22;14128;48.686;9.738;2022-12-22T12:42:56;12.20;1.40
316;DHT22;14128;48.686;9.738;2022-12-22T12:45:36;12.30;1.40
316;DHT22;14128;48.686;9.738;2022-12-22T12:48:41;12.50;1.40
316;DHT22;14128;48.686;9.738;2022-12-22T12:51:46;12.50;1.40
316;DHT22;14128;48.686;9.738;2022-12-22T12:54:38;12.70;1.40
316;DHT22;14128;48.686;9.738;2022-12-22T12:57:26;13.00;1.40
316;DHT22;14128;48.686;9.738;2022-12-22T12:59:55;12.70;1.40
316;DHT22;14128;48.686;9.738;2022-12-22T13:02:34;12.60;1.40
316;DHT22;14128;48.686;9.738;2022-12-22T13:08:16;12.60;1.40
316;DHT22;14128;48.686;9.738;2022-12-22T13:10:47;12.50;1.40
316;DHT22;14128;48.686;9.738;2022-12-22T13:13:44;12.20;1.40
316;DHT22;14128;48.686;9.738;2022-12-22T13:16:29;12.00;1.40
316;DHT22;14128;48.686;9.738;2022-12-22T13:18:57;11.90;1.40
316;DHT22;14128;48.686;9.738;2022-12-22T13:21:28;11.80;1.40
316;DHT22;14128;48.686;9.738;2022-12-22T13:24:03;11.90;1.40
316;DHT22;14128;48.686;9.738;2022-12-22T13:26:32;11.90;1.40
316;DHT22;14128;48.686;9.738;2022-12-22T13:29:07;11.90;1.40
316;DHT22;14128;48.686;9.738;2022-12-22T13:31:40;11.90;1.40
316;DHT22;14128;48.686;9.738;2022-12-22T13:34:35;11.90;1.40
316;DHT22;14128;48.686;9.738;2022-12-22T13:37:11;11.90;1.40
316;DHT22;14128;48.686;9.738;2022-12-22T13:39:40;12.00;1.40
316;DHT22;14128;48.686;9.738;2022-12-22T13:42:10;11.90;1.40
316;DHT22;14128;48.686;9.738;2022-12-22T13:44:39;11.80;1.40
316;DHT22;14128;48.686;9.738;2022-12-22T13:47:11;11.70;1.40
316;DHT22;14128;48.686;9.738;2022-12-22T13:49:41;11.60;1.40
316;DHT22;14128;48.686;9.738;2022-12-22T13:52:11;11.50;1.40
316;DHT22;14128;48.686;9.738;2022-12-22T13:54:42;11.40;1.40
316;DHT22;14128;48.686;9.738;2022-12-22T13:57:14;11.40;1.40
316;DHT22;14128;48.686;9.738;2022-12-22T13:59:45;11.30;1.40
316;DHT22;14128;48.686;9.738;2022-12-22T14:02:16;11.20;1.40
316;DHT22;14128;48.686;9.738;2022-12-22T14:04:44;11.20;1.40
316;DHT22;14128;48.686;9.738;2022-12-22T14:07:11;11.20;1.40
316;DHT22;14128;48.686;9.738;2022-12-22T14:09:42;11.20;1.40
316;DHT22;14128;48.686;9.738;2022-12-22T14:12:12;11.20;1.40
316;DHT22;14128;48.686;9.738;2022-12-22T14:14:43;11.30;1.40
316;DHT22;14128;48.686;9.738;2022-12-22T14:17:19;11.40;1.40
316;DHT22;14128;48.686;9.738;2022-12-22T14:19:48;11.40;1.40
316;DHT22;14128;48.686;9.738;2022-12-22T14:22:19;11.40;1.40
316;DHT22;14128;48.686;9.738;2022-12-22T14:24:50;11.40;1.40
316;DHT22;14128;48.686;9.738;2022-12-22T14:27:25;11.50;1.40
316;DHT22;14128;48.686;9.738;2022-12-22T14:29:59;11.40;1.40
316;DHT22;14128;48.686;9.738;2022-12-22T14:32:40;11.40;1.40
316;DHT22;14128;48.686;9.738;2022-12-22T14:35:22;11.40;1.40
316;DHT22;14128;48.686;9.738;2022-12-22T14:37:52;11.50;1.40
316;DHT22;14128;48.686;9.738;2022-12-22T14:40:30;11.50;1.40
316;DHT22;14128;48.686;9.738;2022-12-22T14:42:59;11.50;1.40
316;DHT22;14128;48.686;9.738;2022-12-22T14:45:27;11.40;1.40
316;DHT22;14128;48.686;9.738;2022-12-22T14:47:55;11.40;1.40
316;DHT22;14128;48.686;9.738;2022-12-22T14:50:24;11.40;1.40
316;DHT22;14128;48.686;9.738;2022-12-22T14:52:52;11.30;1.40
316;DHT22;14128;48.686;9.738;2022-12-22T14:55:24;11.30;1.40
316;DHT22;14128;48.686;9.738;2022-12-22T14:57:54;11.20;1.40
316;DHT22;14128;48.686;9.738;2022-12-22T15:00:32;11.20;1.40
316;DHT22;14128;48.686;9.738;2022-12-22T15:03:02;11.10;1.40
316;DHT22;14128;48.686;9.738;2022-12-22T15:05:30;11.10;1.40
316;DHT22;14128;48.686;9.738;2022-12-22T15:08:00;11.00;1.40
316;DHT22;14128;48.686;9.738;2022-12-22T15:10:34;10.90;1.40
316;DHT22;14128;48.686;9.738;2022-12-22T15:13:04;10.90;1.40
316;DHT22;14128;48.686;9.738;2022-12-22T15:15:34;10.90;1.40
316;DHT22;14128;48.686;9.738;2022-12-22T15:18:00;10.90;1.40
316;DHT22;14128;48.686;9.738;2022-12-22T15:20:28;10.80;1.40
316;DHT22;14128;48.686;9.738;2022-12-22T15:22:55;10.80;1.40
316;DHT22;14128;48.686;9.738;2022-12-22T15:25:23;10.70;1.40
316;DHT22;14128;48.686;9.738;2022-12-22T15:27:50;10.60;1.40
316;DHT22;14128;48.686;9.738;2022-12-22T15:30:19;10.70;1.40
316;DHT22;14128;48.686;9.738;2022-12-22T15:32:48;10.60;1.40
316;DHT22;14128;48.686;9.738;2022-12-22T15:35:17;10.50;1.40
316;DHT22;14128;48.686;9.738;2022-12-22T15:37:45;10.50;1.40
316;DHT22;14128;48.686;9.738;2022-12-22T15:40:14;10.50;1.40
316;DHT22;14128;48.686;9.738;2022-12-22T15:42:41;10.60;1.40
316;DHT22;14128;48.686;9.738;2022-12-22T15:45:08;10.60;1.40
316;DHT22;14128;48.686;9.738;2022-12-22T15:47:35;10.60;1.40
316;DHT22;14128;48.686;9.738;2022-12-22T15:50:05;10.70;1.40
316;DHT22;14128;48.686;9.738;2022-12-22T15:52:33;10.60;1.40
316;DHT22;14128;48.686;9.738;2022-12-22T15:55:00;10.60;1.40
316;DHT22;14128;48.686;9.738;2022-12-22T15:57:27;10.50;1.40
316;DHT22;14128;48.686;9.738;2022-12-22T15:59:55;10.40;1.40
316;DHT22;14128;48.686;9.738;2022-12-22T16:02:22;10.30;1.40
316;DHT22;14128;48.686;9.738;2022-12-22T16:04:48;10.20;1.40
316;DHT22;14128;48.686;9.738;2022-12-22T16:07:18;10.20;1.40
316;DHT22;14128;48.686;9.738;2022-12-22T16:09:45;10.20;1.40
316;DHT22;14128;48.686;9.738;2022-12-22T16:12:14;10.30;1.40
316;DHT22;14128;48.686;9.738;2022-12-22T16:14:44;10.20;1.40
316;DHT22;14128;48.686;9.738;2022-12-22T16:17:16;10.20;1.40
316;DHT22;14128;48.686;9.738;2022-12-22T16:19:43;10.20;1.40
316;DHT22;14128;48.686;9.738;2022-12-22T16:22:11;10.10;1.40
316;DHT22;14128;48.686;9.738;2022-12-22T16:24:40;10.10;1.40
316;DHT22;14128;48.686;9.738;2022-12-22T16:27:09;10.10;1.40
316;DHT22;14128;48.686;9.738;2022-12-22T16:29:36;10.10;1.40
316;DHT22;14128;48.686;9.738;2022-12-22T16:32:14;10.10;1.40
316;DHT22;14128;48.686;9.738;2022-12-22T16:34:41;10.00;1.40
316;DHT22;14128;48.686;9.738;2022-12-22T16:37:08;10.00;1.40
316;DHT22;14128;48.686;9.738;2022-12-22T16:39:35;10.00;1.40
316;DHT22;14128;48.686;9.738;2022-12-22T16:42:03;10.10;1.40
316;DHT22;14128;48.686;9.738;2022-12-22T16:44:30;10.10;1.40
316;DHT22;14128;48.686;9.738;2022-12-22T16:46:57;10.10;1.40
316;DHT22;14128;48.686;9.738;2022-12-22T16:49:24;10.00;1.40
316;DHT22;14128;48.686;9.738;2022-12-22T16:51:52;10.00;1.40
316;DHT22;14128;48.686;9.738;2022-12-22T16:54:19;10.00;1.40
316;DHT22;14128;48.686;9.738;2022-12-22T16:56:45;9.90;1.40
316;DHT22;14128;48.686;9.738;2022-12-22T16:59:17;9.80;1.40
316;DHT22;14128;48.686;9.738;2022-12-22T17:01:46;9.60;1.40
316;DHT22;14128;48.686;9.738;2022-12-22T17:04:17;9.70;1.40
316;DHT22;14128;48.686;9.738;2022-12-22T17:06:45;9.70;1.40
316;DHT22;14128;48.686;9.738;2022-12-22T17:09:17;9.60;1.40
316;DHT22;14128;48.686;9.738;2022-12-22T17:11:45;9.60;1.40
316;DHT22;14128;48.686;9.738;2022-12-22T17:14:19;9.60;1.40